createdAt,value
2022-12-04T00:01:07.106Z,23.70
2022-12-04T00:03:33.458Z,24.92
2022-12-04T00:06:14.439Z,24.50
2022-12-04T00:08:42.452Z,22.88
2022-12-04T00:11:10.872Z,24.13
2022-12-04T00:13:37.944Z,23.80
2022-12-04T00:16:11.497Z,22.67
2022-12-04T00:18:38.109Z,22.55
2022-12-04T00:21:05.572Z,23.88
2022-12-04T00:23:32.662Z,25.35
2022-12-04T00:26:03.250Z,24.48
2022-12-04T00:28:29.850Z,24.58
2022-12-04T00:30:56.193Z,23.80
2022-12-04T00:33:22.757Z,23.35
2022-12-04T00:35:56.039Z,22.52
2022-12-04T00:38:22.356Z,22.88
2022-12-04T00:40:50.469Z,23.55
2022-12-04T00:43:16.973Z,25.83
2022-12-04T00:45:43.505Z,23.52
2022-12-04T00:48:09.869Z,24.60
2022-12-04T00:50:36.826Z,22.25
2022-12-04T00:53:03.590Z,25.63
2022-12-04T00:55:30.054Z,24.85
2022-12-04T00:57:59.893Z,23.95
2022-12-04T01:00:26.588Z,22.50
2022-12-04T01:02:53.020Z,22.98
2022-12-04T01:05:19.517Z,24.45
2022-12-04T01:07:45.919Z,22.58
2022-12-04T01:10:12.988Z,25.17
2022-12-04T01:12:39.364Z,22.98
2022-12-04T01:15:06.361Z,24.67
2022-12-04T01:17:32.739Z,23.30
2022-12-04T01:19:59.119Z,22.10
2022-12-04T01:22:25.485Z,22.85
2022-12-04T01:24:55.734Z,25.58
2022-12-04T01:27:22.405Z,26.38
2022-12-04T01:29:48.777Z,23.75
2022-12-04T01:32:15.198Z,22.52
2022-12-04T01:34:41.610Z,21.67
2022-12-04T01:37:08.770Z,20.45
2022-12-04T01:39:38.283Z,19.83
2022-12-04T01:42:05.128Z,20.27
2022-12-04T01:44:32.348Z,22.10
2022-12-04T01:47:00.698Z,21.52
2022-12-04T01:49:36.920Z,23.02
2022-12-04T01:52:21.260Z,20.50
2022-12-04T01:54:50.929Z,20.20
2022-12-04T01:57:19.469Z,22.13
2022-12-04T01:59:52.700Z,20.55
2022-12-04T02:02:23.495Z,22.13
2022-12-04T02:04:50.286Z,22.73
2022-12-04T02:07:16.616Z,23.88
2022-12-04T02:09:43.153Z,23.45
2022-12-04T02:12:24.372Z,22.15
2022-12-04T02:14:58.817Z,21.70
2022-12-04T02:17:35.002Z,20.02
2022-12-04T02:20:11.814Z,21.77
2022-12-04T02:22:59.566Z,21.98
2022-12-04T02:25:44.304Z,22.50
2022-12-04T02:28:14.479Z,22.33
2022-12-04T02:30:42.447Z,23.88
2022-12-04T02:33:24.076Z,22.90
2022-12-04T02:35:56.103Z,19.13
2022-12-04T02:38:39.100Z,22.08
2022-12-04T02:41:22.877Z,22.60
2022-12-04T02:43:52.089Z,21.30
2022-12-04T02:46:27.474Z,22.70
2022-12-04T02:48:58.265Z,22.85
2022-12-04T02:51:28.047Z,21.00
2022-12-04T02:53:57.628Z,19.63
2022-12-04T02:56:29.732Z,23.60
2022-12-04T02:58:59.607Z,23.20
2022-12-04T03:01:32.721Z,21.92
2022-12-04T03:04:15.468Z,21.05
2022-12-04T03:06:44.928Z,19.67
2022-12-04T03:09:22.024Z,22.45
2022-12-04T03:12:00.880Z,22.33
2022-12-04T03:14:35.161Z,19.25
2022-12-04T03:17:06.283Z,22.05
2022-12-04T03:19:42.657Z,21.52
2022-12-04T03:22:13.503Z,21.52
2022-12-04T03:24:46.956Z,23.50
2022-12-04T03:27:38.520Z,21.20
2022-12-04T03:30:11.066Z,22.13
2022-12-04T03:32:57.096Z,21.60
2022-12-04T03:35:30.075Z,20.15
2022-12-04T03:38:21.232Z,20.47
2022-12-04T03:40:59.627Z,23.40
2022-12-04T03:47:46.628Z,21.35
2022-12-04T03:50:24.534Z,22.20
2022-12-04T03:52:52.494Z,19.50
2022-12-04T03:55:40.297Z,21.90
2022-12-04T03:58:10.485Z,24.25
2022-12-04T04:00:40.236Z,22.42
2022-12-04T04:03:11.561Z,20.50
2022-12-04T04:05:42.860Z,20.40
2022-12-04T04:08:27.964Z,21.92
2022-12-04T04:11:08.281Z,22.45
2022-12-04T04:13:59.576Z,21.23
2022-12-04T04:16:47.215Z,24.75
2022-12-04T04:19:34.106Z,20.20
2022-12-04T04:22:22.154Z,23.50
2022-12-04T04:24:59.691Z,22.85
2022-12-04T04:27:26.013Z,22.85
2022-12-04T04:29:52.946Z,21.67
2022-12-04T04:32:34.557Z,23.58
2022-12-04T04:35:24.058Z,23.98
2022-12-04T04:38:19.565Z,21.90
2022-12-04T04:40:58.807Z,22.17
2022-12-04T04:43:42.637Z,21.15
2022-12-04T04:46:14.287Z,20.63
2022-12-04T04:48:44.001Z,20.63
2022-12-04T04:51:10.636Z,21.80
2022-12-04T04:53:41.724Z,19.30
2022-12-04T04:56:08.612Z,21.60
2022-12-04T04:58:35.209Z,22.35
2022-12-04T05:01:11.476Z,21.90
2022-12-04T05:03:38.126Z,21.30
2022-12-04T05:06:04.665Z,19.35
2022-12-04T05:08:31.004Z,21.75
2022-12-04T05:10:57.333Z,21.15
2022-12-04T05:13:23.868Z,22.20
2022-12-04T05:16:16.637Z,20.27
2022-12-04T05:19:03.081Z,20.30
2022-12-04T05:21:29.606Z,22.20
2022-12-04T05:23:56.060Z,21.90
2022-12-04T05:26:22.491Z,22.95
2022-12-04T05:28:48.869Z,20.85
2022-12-04T05:31:15.348Z,22.05
2022-12-04T05:33:41.824Z,22.35
2022-12-04T05:36:10.345Z,20.52
2022-12-04T05:38:37.414Z,21.05
2022-12-04T05:41:05.348Z,21.67
2022-12-04T05:43:32.138Z,23.10
2022-12-04T05:46:06.175Z,23.65
2022-12-04T05:48:34.602Z,21.17
2022-12-04T05:51:05.174Z,22.38
2022-12-04T05:53:31.521Z,20.83
2022-12-04T05:55:59.853Z,22.77
2022-12-04T05:58:26.221Z,21.42
2022-12-04T06:00:52.954Z,20.23
2022-12-04T06:03:19.473Z,24.20
2022-12-04T06:05:45.865Z,20.65
2022-12-04T06:08:12.309Z,18.77
2022-12-04T06:10:38.729Z,20.42
2022-12-04T06:13:08.104Z,20.88
2022-12-04T06:15:40.830Z,21.30
2022-12-04T06:18:07.444Z,17.52
2022-12-04T06:20:34.579Z,22.35
2022-12-04T06:23:01.010Z,22.13
2022-12-04T06:25:27.378Z,20.88
2022-12-04T06:27:53.822Z,22.95
2022-12-04T06:30:20.209Z,19.95
2022-12-04T06:32:46.530Z,20.13
2022-12-04T06:35:12.845Z,20.23
2022-12-04T06:37:39.284Z,20.77
2022-12-04T06:40:06.359Z,18.40
2022-12-04T06:42:32.734Z,18.63
2022-12-04T06:44:59.130Z,18.70
2022-12-04T06:47:25.500Z,24.23
2022-12-04T06:49:51.921Z,21.98
2022-12-04T06:52:18.553Z,21.15
2022-12-04T06:54:44.926Z,20.90
2022-12-04T06:57:11.322Z,19.80
2022-12-04T06:59:37.803Z,24.23
2022-12-04T07:02:04.202Z,18.80
2022-12-04T07:04:30.572Z,19.63
2022-12-04T07:06:57.549Z,19.70
2022-12-04T07:09:23.877Z,20.88
2022-12-04T07:11:50.457Z,20.90
2022-12-04T07:14:16.884Z,18.02
2022-12-04T07:16:43.458Z,19.75
2022-12-04T07:19:10.899Z,18.73
2022-12-04T07:21:37.313Z,22.63
2022-12-04T07:24:04.027Z,18.63
2022-12-04T07:26:30.832Z,21.13
2022-12-04T07:28:58.016Z,19.88
2022-12-04T07:31:26.167Z,23.60
2022-12-04T07:33:54.311Z,21.55
2022-12-04T07:36:22.147Z,20.48
2022-12-04T07:38:48.974Z,17.63
2022-12-04T07:41:15.420Z,18.95
2022-12-04T07:43:42.304Z,16.15
2022-12-04T07:46:11.321Z,18.20
2022-12-04T07:48:37.931Z,18.48
2022-12-04T07:51:07.803Z,17.50
2022-12-04T07:53:35.157Z,17.33
2022-12-04T07:56:02.495Z,18.30
2022-12-04T07:58:28.807Z,19.15
2022-12-04T08:00:55.406Z,18.23
2022-12-04T08:03:21.896Z,17.33
2022-12-04T08:05:48.236Z,18.33
2022-12-04T08:08:14.625Z,18.95
2022-12-04T08:10:41.002Z,18.77
2022-12-04T08:13:07.349Z,19.63
2022-12-04T08:15:34.912Z,18.08
2022-12-04T08:18:01.234Z,18.55
2022-12-04T08:20:27.592Z,17.85
2022-12-04T08:22:53.970Z,16.60
2022-12-04T08:25:20.312Z,16.60
2022-12-04T08:27:47.915Z,16.30
2022-12-04T08:30:14.416Z,18.85
2022-12-04T08:32:40.928Z,14.90
2022-12-04T08:35:07.584Z,15.90
2022-12-04T08:37:33.925Z,16.80
2022-12-04T08:40:00.250Z,17.40
2022-12-04T08:42:26.788Z,18.23
2022-12-04T08:44:53.357Z,18.08
2022-12-04T08:47:19.794Z,16.92
2022-12-04T08:49:46.233Z,16.67
2022-12-04T08:52:12.606Z,17.30
2022-12-04T08:54:38.972Z,18.00
2022-12-04T08:57:05.595Z,19.08
2022-12-04T08:59:31.926Z,19.13
2022-12-04T09:01:58.313Z,21.05
2022-12-04T09:04:24.792Z,19.17
2022-12-04T09:06:51.209Z,19.88
2022-12-04T09:09:17.652Z,15.70
2022-12-04T09:11:46.935Z,19.48
2022-12-04T09:14:13.300Z,22.63
2022-12-04T09:16:39.712Z,21.17
2022-12-04T09:19:06.034Z,20.30
2022-12-04T09:21:35.356Z,25.50
2022-12-04T09:24:01.752Z,20.90
2022-12-04T09:26:30.399Z,22.95
2022-12-04T09:28:59.316Z,20.65
2022-12-04T09:31:26.453Z,20.08
2022-12-04T09:33:52.864Z,20.52
2022-12-04T09:36:19.973Z,19.65
2022-12-04T09:38:49.271Z,22.05
2022-12-04T09:41:27.623Z,19.38
2022-12-04T09:44:04.154Z,22.70
2022-12-04T09:46:40.477Z,21.15
2022-12-04T09:49:17.741Z,18.70
2022-12-04T09:51:44.794Z,21.58
2022-12-04T09:54:23.999Z,21.65
2022-12-04T09:57:00.625Z,20.95
2022-12-04T09:59:29.118Z,21.60
2022-12-04T10:02:10.589Z,20.63
2022-12-04T10:04:37.008Z,19.95
2022-12-04T10:07:11.101Z,21.67
2022-12-04T10:09:59.800Z,19.27
2022-12-04T10:12:36.969Z,20.50
2022-12-04T10:15:22.560Z,19.85
2022-12-04T10:18:12.885Z,21.10
2022-12-04T10:21:01.797Z,22.98
2022-12-04T10:23:52.334Z,22.60
2022-12-04T10:26:23.075Z,18.50
2022-12-04T10:28:59.527Z,21.42
2022-12-04T10:31:26.405Z,19.45
2022-12-04T10:33:56.135Z,22.58
2022-12-04T10:36:25.392Z,20.80
2022-12-04T10:39:13.503Z,20.42
2022-12-04T10:41:50.871Z,20.42
2022-12-04T10:44:21.203Z,20.35
2022-12-04T10:46:47.683Z,19.13
2022-12-04T10:49:18.939Z,22.90
2022-12-04T10:51:46.788Z,22.73
2022-12-04T10:54:27.213Z,18.52
2022-12-04T10:57:07.523Z,21.70
2022-12-04T10:59:34.392Z,20.52
2022-12-04T11:02:23.042Z,21.38
2022-12-04T11:04:58.706Z,23.23
2022-12-04T11:07:37.173Z,23.75
2022-12-04T11:10:25.208Z,17.00
2022-12-04T11:13:00.731Z,19.17
2022-12-04T11:15:27.497Z,20.42
2022-12-04T11:17:53.894Z,17.23
2022-12-04T11:20:25.211Z,21.70
2022-12-04T11:22:54.177Z,19.45
2022-12-04T11:25:21.728Z,17.73
2022-12-04T11:27:52.969Z,16.65
2022-12-04T11:30:22.729Z,17.58
2022-12-04T11:32:49.226Z,23.67
2022-12-04T11:35:17.740Z,19.05
2022-12-04T11:37:52.948Z,17.92
2022-12-04T11:40:20.209Z,19.67
2022-12-04T11:42:58.411Z,17.00
2022-12-04T11:45:24.753Z,18.52
2022-12-04T11:47:56.456Z,19.42
2022-12-04T11:50:30.674Z,17.33
2022-12-04T11:53:09.871Z,16.92
2022-12-04T11:56:13.375Z,32.97
2022-12-04T11:59:06.162Z,20.60
2022-12-04T12:01:58.719Z,15.60
2022-12-04T12:04:37.338Z,17.30
2022-12-04T12:07:09.132Z,17.55
2022-12-04T12:09:48.661Z,15.85
2022-12-04T12:12:25.136Z,17.33
2022-12-04T12:15:05.654Z,14.23
2022-12-04T12:18:07.301Z,14.45
2022-12-04T12:20:40.584Z,16.25
2022-12-04T12:23:37.296Z,13.90
2022-12-04T12:26:14.566Z,17.60
2022-12-04T12:28:48.518Z,16.92
2022-12-04T12:33:54.132Z,18.17
2022-12-04T12:36:22.209Z,17.63
2022-12-04T12:38:54.280Z,17.33
2022-12-04T12:41:20.778Z,17.48
2022-12-04T12:43:53.889Z,18.05
2022-12-04T12:46:34.845Z,19.40
2022-12-04T12:49:13.970Z,16.60
2022-12-04T12:51:50.745Z,18.52
2022-12-04T12:54:28.808Z,16.83
2022-12-04T12:57:06.311Z,16.73
2022-12-04T12:59:32.995Z,19.02
2022-12-04T13:02:08.300Z,17.25
2022-12-04T13:04:41.429Z,16.48
2022-12-04T13:07:16.667Z,19.27
2022-12-04T13:09:49.106Z,16.30
2022-12-04T13:12:16.750Z,21.00
2022-12-04T13:14:48.679Z,17.27
2022-12-04T13:17:26.229Z,19.17
2022-12-04T13:19:55.308Z,18.38
2022-12-04T13:23:16.058Z,19.13
2022-12-04T13:26:04.973Z,17.48
2022-12-04T13:28:44.236Z,16.90
2022-12-04T13:31:21.043Z,18.27
2022-12-04T13:34:02.310Z,17.13
2022-12-04T13:36:44.374Z,18.55
2022-12-04T13:39:36.142Z,15.20
2022-12-04T13:42:05.485Z,18.45
2022-12-04T13:44:32.900Z,18.02
2022-12-04T13:47:02.170Z,16.88
2022-12-04T13:49:37.518Z,14.95
2022-12-04T13:52:06.309Z,17.60
2022-12-04T13:54:35.364Z,18.02
2022-12-04T13:57:16.734Z,15.93
2022-12-04T13:59:43.503Z,16.30
2022-12-04T14:02:25.977Z,14.93
2022-12-04T14:04:56.625Z,15.75
2022-12-04T14:07:38.328Z,14.65
2022-12-04T14:10:13.594Z,17.70
2022-12-04T14:12:43.048Z,15.35
2022-12-04T14:15:21.951Z,18.58
2022-12-04T14:18:00.995Z,18.98
2022-12-04T14:20:29.032Z,18.48
2022-12-04T14:22:55.501Z,16.35
2022-12-04T14:25:33.434Z,18.83
2022-12-04T14:28:00.269Z,17.45
2022-12-04T14:30:38.038Z,15.52
2022-12-04T14:33:21.918Z,16.42
2022-12-04T14:35:50.781Z,17.98
2022-12-04T14:38:20.502Z,18.17
2022-12-04T14:40:49.246Z,19.48
2022-12-04T14:43:21.725Z,20.27
2022-12-04T14:46:12.148Z,16.92
2022-12-04T14:49:06.602Z,18.83
2022-12-04T14:52:17.749Z,19.58
2022-12-04T14:55:01.157Z,19.20
2022-12-04T14:57:41.115Z,21.47
2022-12-04T15:00:16.982Z,21.65
2022-12-04T15:02:44.216Z,20.52
2022-12-04T15:05:12.610Z,18.30
2022-12-04T15:07:45.523Z,20.00
2022-12-04T15:10:42.353Z,20.63
2022-12-04T15:13:08.811Z,18.73
2022-12-04T15:15:35.207Z,22.40
2022-12-04T15:18:07.438Z,19.83
2022-12-04T15:20:53.164Z,24.13
2022-12-04T15:23:21.962Z,19.95
2022-12-04T15:25:53.205Z,20.88
2022-12-04T15:28:25.497Z,20.30
2022-12-04T15:30:52.526Z,22.92
2022-12-04T15:33:22.207Z,21.15
2022-12-04T15:35:54.498Z,21.52
2022-12-04T15:38:21.132Z,22.05
2022-12-04T15:41:05.453Z,21.92
2022-12-04T15:45:59.979Z,22.83
2022-12-04T15:48:28.963Z,22.17
2022-12-04T15:50:56.891Z,21.05
2022-12-04T15:53:27.257Z,22.67
2022-12-04T15:56:00.071Z,25.05
2022-12-04T15:58:29.219Z,26.88
2022-12-04T16:01:04.600Z,26.88
2022-12-04T16:03:45.995Z,20.83
2022-12-04T16:06:27.150Z,23.63
2022-12-04T16:08:58.741Z,23.45
2022-12-04T16:11:29.147Z,24.73
2022-12-04T16:14:14.400Z,24.35
2022-12-04T16:16:43.676Z,22.35
2022-12-04T16:19:16.127Z,21.98
2022-12-04T16:21:42.533Z,24.30
2022-12-04T16:24:11.364Z,21.92
2022-12-04T16:26:37.713Z,23.30
2022-12-04T16:29:04.024Z,22.67
2022-12-04T16:31:30.430Z,24.25
2022-12-04T16:33:56.907Z,23.17
2022-12-04T16:36:23.411Z,24.35
2022-12-04T16:38:50.332Z,22.98
2022-12-04T16:41:18.092Z,21.85
2022-12-04T16:43:44.823Z,23.15
2022-12-04T16:46:15.644Z,24.23
2022-12-04T16:48:42.644Z,23.63
2022-12-04T16:51:15.416Z,24.13
2022-12-04T16:53:41.890Z,22.48
2022-12-04T16:56:08.882Z,24.42
2022-12-04T16:58:35.314Z,24.55
2022-12-04T17:01:03.685Z,26.23
2022-12-04T17:03:32.231Z,25.73
2022-12-04T17:06:00.386Z,24.70
2022-12-04T17:08:27.943Z,25.75
2022-12-04T17:10:54.308Z,25.25
2022-12-04T17:13:21.525Z,25.63
2022-12-04T17:15:48.041Z,27.20
2022-12-04T17:18:20.595Z,26.17
2022-12-04T17:20:47.613Z,28.13
2022-12-04T17:23:14.005Z,26.95
2022-12-04T17:25:40.709Z,26.88
2022-12-04T17:28:07.098Z,25.25
2022-12-04T17:30:36.146Z,24.02
2022-12-04T17:33:03.828Z,24.98
2022-12-04T17:35:30.414Z,26.02
2022-12-04T17:38:02.068Z,29.63
2022-12-04T17:40:32.149Z,28.15
2022-12-04T17:42:58.543Z,26.40
2022-12-04T17:45:24.914Z,29.17
2022-12-04T17:47:51.245Z,26.33
2022-12-04T17:50:17.657Z,31.85
2022-12-04T17:52:44.002Z,27.10
2022-12-04T17:55:10.327Z,26.40
2022-12-04T17:57:36.691Z,25.80
2022-12-04T18:00:03.884Z,27.98
2022-12-04T18:02:30.310Z,30.55
2022-12-04T18:04:57.018Z,27.00
2022-12-04T18:07:23.745Z,26.92
2022-12-04T18:09:50.137Z,27.10
2022-12-04T18:12:16.510Z,25.75
2022-12-04T18:14:42.820Z,24.42
2022-12-04T18:17:09.406Z,26.90
2022-12-04T18:19:35.878Z,26.48
2022-12-04T18:22:02.372Z,25.48
2022-12-04T18:24:28.851Z,31.65
2022-12-04T18:26:55.287Z,24.38
2022-12-04T18:29:24.514Z,23.23
2022-12-04T18:31:51.388Z,24.98
2022-12-04T18:34:18.408Z,26.65
2022-12-04T18:36:47.696Z,25.20
2022-12-04T18:39:21.525Z,24.25
2022-12-04T18:41:48.490Z,22.15
2022-12-04T18:44:15.724Z,23.70
2022-12-04T18:46:42.449Z,22.38
2022-12-04T18:49:11.578Z,18.70
2022-12-04T18:51:40.109Z,23.92
2022-12-04T18:54:10.054Z,28.17
2022-12-04T18:56:36.756Z,22.25
2022-12-04T18:59:17.108Z,22.42
2022-12-04T19:05:31.524Z,24.23
2022-12-04T19:07:58.640Z,23.98
2022-12-04T19:10:26.222Z,26.05
2022-12-04T19:12:52.967Z,22.67
2022-12-04T19:15:20.112Z,24.50
2022-12-04T19:17:46.665Z,24.60
2022-12-04T19:20:13.567Z,25.83
2022-12-04T19:22:39.927Z,24.75
2022-12-04T19:25:06.853Z,24.75
2022-12-04T19:27:33.601Z,25.85
2022-12-04T19:29:59.919Z,26.00
2022-12-04T19:32:26.388Z,28.02
2022-12-04T19:34:52.869Z,24.27
2022-12-04T19:37:19.226Z,26.52
2022-12-04T19:39:45.531Z,22.77
2022-12-04T19:42:11.894Z,22.92
2022-12-04T19:44:53.777Z,22.52
2022-12-04T19:47:20.128Z,23.00
2022-12-04T19:49:46.641Z,23.73
2022-12-04T19:52:13.115Z,24.50
2022-12-04T19:54:39.514Z,22.65
2022-12-04T19:57:05.872Z,25.30
2022-12-04T19:59:37.009Z,23.88
2022-12-04T20:02:05.039Z,22.30
2022-12-04T20:04:31.391Z,25.17
2022-12-04T20:06:57.768Z,24.40
2022-12-04T20:09:25.159Z,27.02
2022-12-04T20:11:51.563Z,24.63
2022-12-04T20:14:18.045Z,27.02
2022-12-04T20:16:44.699Z,24.75
2022-12-04T20:19:14.535Z,26.52
2022-12-04T20:21:40.919Z,24.15
2022-12-04T20:24:07.640Z,28.70
2022-12-04T20:26:38.110Z,26.35
2022-12-04T20:29:06.051Z,25.92
2022-12-04T20:31:34.651Z,27.13
2022-12-04T20:34:02.609Z,27.90
2022-12-04T20:36:30.241Z,28.25
2022-12-04T20:38:58.473Z,26.20
2022-12-04T20:41:26.653Z,30.27
2022-12-04T20:43:53.022Z,27.95
2022-12-04T20:46:22.539Z,28.70
2022-12-04T20:48:49.645Z,30.52
2022-12-04T20:51:21.084Z,28.95
2022-12-04T20:53:48.419Z,27.50
2022-12-04T20:56:14.737Z,28.35
2022-12-04T20:58:41.224Z,32.40
2022-12-04T21:01:10.202Z,29.70
2022-12-04T21:03:36.877Z,28.67
2022-12-04T21:06:03.806Z,29.25
2022-12-04T21:08:48.978Z,28.65
2022-12-04T21:11:15.358Z,26.73
2022-12-04T21:14:00.017Z,28.30
2022-12-04T21:16:26.481Z,25.77
2022-12-04T21:18:52.820Z,27.20
2022-12-04T21:21:19.166Z,28.05
2022-12-04T21:23:45.516Z,28.08
2022-12-04T21:26:11.949Z,27.48
2022-12-04T21:28:38.629Z,25.70
2022-12-04T21:31:06.247Z,27.30
2022-12-04T21:33:34.190Z,29.10
2022-12-04T21:36:08.898Z,29.73
2022-12-04T21:38:38.574Z,27.42
2022-12-04T21:41:07.150Z,29.30
2022-12-04T21:43:34.794Z,25.73
2022-12-04T21:46:09.490Z,27.92
2022-12-04T21:48:36.282Z,30.38
2022-12-04T21:51:13.283Z,27.60
2022-12-04T21:53:54.659Z,26.85
2022-12-04T21:56:22.518Z,29.48
2022-12-04T21:58:48.888Z,26.02
2022-12-04T22:01:16.746Z,27.10
2022-12-04T22:03:43.178Z,27.40
2022-12-04T22:06:09.736Z,27.42
2022-12-04T22:08:37.000Z,28.15
2022-12-04T22:11:07.773Z,29.42
2022-12-04T22:13:35.480Z,26.17
2022-12-04T22:16:06.762Z,26.05
2022-12-04T22:18:33.769Z,25.42
2022-12-04T22:21:11.414Z,23.98
2022-12-04T22:23:38.424Z,27.13
2022-12-04T22:26:14.285Z,24.25
2022-12-04T22:28:41.341Z,24.88
2022-12-04T22:31:13.129Z,26.42
2022-12-04T22:33:39.898Z,24.63
2022-12-04T22:36:08.545Z,25.27
2022-12-04T22:38:47.268Z,25.58
2022-12-04T22:41:24.084Z,23.70
2022-12-04T22:43:51.533Z,24.10
2022-12-04T22:46:18.333Z,22.40
2022-12-04T22:48:44.894Z,23.45
2022-12-04T22:51:16.721Z,22.35
2022-12-04T22:53:45.496Z,22.42
2022-12-04T22:56:17.762Z,24.08
2022-12-04T22:58:44.261Z,24.38
2022-12-04T23:01:15.964Z,23.50
2022-12-04T23:03:42.440Z,19.70
2022-12-04T23:06:09.086Z,24.13
2022-12-04T23:08:37.059Z,25.33
2022-12-04T23:11:12.103Z,20.95
2022-12-04T23:13:38.934Z,19.77
2022-12-04T23:16:09.513Z,21.90
2022-12-04T23:18:36.664Z,24.52
2022-12-04T23:21:10.774Z,21.17
2022-12-04T23:23:38.461Z,19.88
2022-12-04T23:26:10.973Z,20.17
2022-12-04T23:28:37.628Z,18.08
2022-12-04T23:31:04.304Z,21.33
2022-12-04T23:33:31.422Z,21.10
2022-12-04T23:35:59.558Z,23.25
2022-12-04T23:38:27.205Z,23.63
2022-12-04T23:41:14.296Z,25.30
2022-12-04T23:43:41.286Z,25.35
2022-12-04T23:46:11.231Z,21.83
2022-12-04T23:48:39.018Z,22.77
2022-12-04T23:51:05.739Z,23.50
2022-12-04T23:53:32.206Z,20.65
2022-12-04T23:56:06.532Z,25.45
2022-12-04T23:58:33.902Z,20.95
